createdAt,value
2018-03-14T00:01:26.476Z,14.10
2018-03-14T00:03:54.902Z,14.20
2018-03-14T00:06:23.679Z,13.70
2018-03-14T00:08:52.057Z,14.10
2018-03-14T00:11:20.444Z,13.53
2018-03-14T00:13:48.819Z,13.63
2018-03-14T00:16:17.700Z,13.73
2018-03-14T00:18:46.069Z,14.80
2018-03-14T00:21:14.440Z,15.57
2018-03-14T00:23:42.826Z,16.83
2018-03-14T00:26:11.206Z,16.70
2018-03-14T00:28:39.575Z,15.40
2018-03-14T00:31:07.948Z,16.10
2018-03-14T00:33:36.324Z,16.70
2018-03-14T00:36:04.704Z,15.10
2018-03-14T00:38:33.124Z,15.93
2018-03-14T00:41:01.515Z,15.00
2018-03-14T00:43:30.303Z,16.30
2018-03-14T00:45:58.687Z,16.70
2018-03-14T00:48:27.456Z,17.13
2018-03-14T00:50:55.832Z,16.80
2018-03-14T00:53:24.199Z,17.60
2018-03-14T00:55:52.675Z,16.10
2018-03-14T00:58:21.059Z,16.27
2018-03-14T01:00:49.443Z,16.97
2018-03-14T01:03:17.820Z,16.37
2018-03-14T01:05:46.311Z,17.53
2018-03-14T01:08:14.679Z,17.73
2018-03-14T01:10:43.070Z,17.67
2018-03-14T01:13:11.472Z,17.47
2018-03-14T01:15:40.252Z,17.57
2018-03-14T01:18:09.117Z,16.97
2018-03-14T01:20:37.547Z,16.47
2018-03-14T01:23:06.044Z,16.07
2018-03-14T01:25:34.555Z,15.70
2018-03-14T01:28:02.936Z,15.00
2018-03-14T01:30:31.317Z,15.70
2018-03-14T01:32:59.795Z,15.70
2018-03-14T01:35:28.177Z,14.93
2018-03-14T01:37:56.600Z,17.07
2018-03-14T01:40:25.003Z,16.23
2018-03-14T01:42:53.407Z,14.93
2018-03-14T01:45:21.894Z,15.63
2018-03-14T01:47:50.356Z,15.03
2018-03-14T01:50:18.732Z,13.73
2018-03-14T01:52:47.100Z,14.53
2018-03-14T01:55:15.493Z,14.20
2018-03-14T01:57:43.896Z,14.80
2018-03-14T02:00:12.372Z,14.80
2018-03-14T02:02:40.739Z,14.60
2018-03-14T02:05:09.131Z,15.13
2018-03-14T02:07:37.507Z,14.13
2018-03-14T02:10:05.986Z,13.83
2018-03-14T02:12:34.368Z,12.70
2018-03-14T02:15:02.847Z,13.10
2018-03-14T02:17:31.228Z,11.97
2018-03-14T02:19:59.605Z,11.90
2018-03-14T02:22:27.995Z,11.90
2018-03-14T02:24:56.365Z,11.30
2018-03-14T02:27:24.747Z,10.43
2018-03-14T02:29:53.228Z,11.10
2018-03-14T02:32:21.610Z,11.23
2018-03-14T02:34:49.988Z,9.90
2018-03-14T02:37:18.351Z,10.40
2018-03-14T02:39:46.719Z,11.17
2018-03-14T02:42:15.094Z,11.30
2018-03-14T02:44:43.475Z,10.70
2018-03-14T02:47:11.892Z,11.13
2018-03-14T02:49:40.256Z,9.83
2018-03-14T02:52:08.652Z,10.13
2018-03-14T02:54:37.028Z,10.10
2018-03-14T02:57:05.395Z,10.27
2018-03-14T02:59:33.750Z,9.53
2018-03-14T03:02:02.107Z,9.00
2018-03-14T03:04:30.521Z,9.93
2018-03-14T03:06:59.004Z,9.40
2018-03-14T03:09:27.368Z,9.67
2018-03-14T03:11:55.879Z,9.83
2018-03-14T03:14:24.240Z,10.30
2018-03-14T03:16:52.616Z,9.73
2018-03-14T03:19:20.974Z,8.57
2018-03-14T03:21:49.379Z,9.17
2018-03-14T03:24:17.730Z,9.80
2018-03-14T03:26:46.133Z,10.30
2018-03-14T03:29:14.520Z,9.50
2018-03-14T03:31:42.977Z,10.03
2018-03-14T03:34:11.381Z,10.27
2018-03-14T03:36:39.769Z,10.10
2018-03-14T03:39:08.131Z,9.50
2018-03-14T03:41:36.509Z,8.40
2018-03-14T03:44:04.878Z,9.70
2018-03-14T03:46:33.276Z,9.13
2018-03-14T03:49:01.650Z,9.17
2018-03-14T03:51:30.020Z,10.27
2018-03-14T03:53:59.091Z,8.90
2018-03-14T03:56:27.447Z,9.60
2018-03-14T03:58:56.370Z,10.13
2018-03-14T04:01:24.773Z,8.50
2018-03-14T04:03:53.115Z,10.17
2018-03-14T04:06:21.476Z,10.37
2018-03-14T04:08:50.215Z,9.53
2018-03-14T04:11:18.588Z,8.83
2018-03-14T04:13:47.370Z,9.10
2018-03-14T04:16:15.770Z,9.53
2018-03-14T04:18:44.120Z,9.80
2018-03-14T04:21:12.480Z,8.97
2018-03-14T04:23:40.966Z,9.30
2018-03-14T04:26:09.380Z,9.33
2018-03-14T04:28:37.731Z,8.23
2018-03-14T04:31:06.214Z,9.50
2018-03-14T04:33:34.573Z,7.70
2018-03-14T04:36:03.340Z,7.80
2018-03-14T04:38:31.688Z,8.63
2018-03-14T04:41:00.066Z,8.73
2018-03-14T04:43:28.419Z,8.73
2018-03-14T04:45:56.829Z,8.53
2018-03-14T04:48:25.211Z,8.70
2018-03-14T04:50:53.569Z,8.07
2018-03-14T04:53:22.024Z,7.63
2018-03-14T04:55:50.469Z,8.23
2018-03-14T04:58:18.928Z,8.03
2018-03-14T05:00:47.400Z,7.47
2018-03-14T05:03:15.792Z,8.93
2018-03-14T05:05:44.338Z,8.30
2018-03-14T05:08:12.763Z,8.10
2018-03-14T05:10:41.148Z,8.07
2018-03-14T05:13:09.597Z,8.47
2018-03-14T05:15:37.988Z,8.37
2018-03-14T05:18:06.333Z,8.13
2018-03-14T05:20:34.687Z,6.63
2018-03-14T05:23:03.522Z,7.47
2018-03-14T05:25:31.883Z,7.60
2018-03-14T05:28:00.232Z,8.13
2018-03-14T05:30:29.003Z,7.27
2018-03-14T05:32:57.447Z,7.50
2018-03-14T05:35:25.885Z,7.80
2018-03-14T05:37:54.640Z,7.83
2018-03-14T05:40:23.011Z,6.60
2018-03-14T05:42:51.386Z,7.80
2018-03-14T05:45:19.763Z,7.57
2018-03-14T05:47:48.196Z,6.90
2018-03-14T05:50:16.561Z,7.00
2018-03-14T05:52:45.332Z,6.67
2018-03-14T05:55:14.143Z,8.33
2018-03-14T05:57:42.563Z,7.40
2018-03-14T06:00:10.935Z,7.43
2018-03-14T06:02:39.526Z,7.30
2018-03-14T06:05:07.893Z,6.93
2018-03-14T06:07:36.299Z,7.60
2018-03-14T06:10:04.678Z,7.70
2018-03-14T06:12:33.057Z,7.20
2018-03-14T06:15:01.425Z,7.00
2018-03-14T06:17:29.788Z,7.63
2018-03-14T06:19:58.187Z,6.50
2018-03-14T06:22:26.543Z,7.37
2018-03-14T06:24:54.978Z,6.77
2018-03-14T06:27:23.318Z,7.53
2018-03-14T06:29:51.691Z,7.30
2018-03-14T06:32:20.050Z,6.53
2018-03-14T06:34:48.459Z,8.17
2018-03-14T06:37:16.840Z,8.90
2018-03-14T06:39:45.290Z,7.90
2018-03-14T06:42:13.749Z,7.80
2018-03-14T06:44:42.606Z,8.67
2018-03-14T06:47:11.089Z,8.83
2018-03-14T06:49:39.438Z,8.90
2018-03-14T06:52:07.815Z,9.20
2018-03-14T06:54:36.168Z,7.80
2018-03-14T06:57:04.535Z,9.00
2018-03-14T06:59:51.144Z,8.40
2018-03-14T07:02:37.792Z,8.40
2018-03-14T07:05:23.959Z,8.30
2018-03-14T07:07:52.452Z,8.97
2018-03-14T07:10:20.832Z,9.40
2018-03-14T07:12:49.263Z,8.93
2018-03-14T07:15:17.623Z,9.10
2018-03-14T07:17:46.614Z,9.60
2018-03-14T07:20:14.995Z,9.43
2018-03-14T07:22:43.386Z,9.40
2018-03-14T07:25:11.829Z,10.50
2018-03-14T07:27:40.222Z,9.07
2018-03-14T07:30:08.596Z,11.00
2018-03-14T07:32:36.970Z,10.43
2018-03-14T07:35:05.456Z,10.40
2018-03-14T07:37:33.817Z,10.33
2018-03-14T07:40:02.241Z,11.13
2018-03-14T07:42:30.617Z,10.87
2018-03-14T07:44:58.983Z,13.30
2018-03-14T07:47:27.348Z,12.30
2018-03-14T07:49:55.727Z,11.90
2018-03-14T07:52:24.097Z,12.80
2018-03-14T07:54:52.451Z,13.03
2018-03-14T07:57:21.243Z,14.47
2018-03-14T07:59:49.612Z,14.93
2018-03-14T08:02:19.182Z,12.50
2018-03-14T08:04:47.544Z,15.47
2018-03-14T08:07:15.933Z,14.70
2018-03-14T08:09:44.284Z,16.70
2018-03-14T08:12:12.679Z,14.90
2018-03-14T08:14:41.102Z,16.33
2018-03-14T08:17:09.864Z,15.47
2018-03-14T08:19:38.332Z,16.23
2018-03-14T08:22:06.718Z,15.10
2018-03-14T08:24:35.076Z,15.37
2018-03-14T08:27:03.464Z,16.77
2018-03-14T08:29:31.833Z,15.80
2018-03-14T08:32:00.192Z,15.97
2018-03-14T08:34:28.682Z,15.13
2018-03-14T08:36:57.011Z,17.60
2018-03-14T08:39:25.779Z,16.93
2018-03-14T08:41:54.180Z,15.60
2018-03-14T08:44:22.545Z,16.30
2018-03-14T08:46:50.987Z,14.23
2018-03-14T08:49:19.724Z,16.37
2018-03-14T08:51:48.099Z,14.60
2018-03-14T08:54:16.466Z,15.60
2018-03-14T08:56:44.861Z,16.50
2018-03-14T08:59:13.639Z,15.90
2018-03-14T09:01:42.243Z,13.97
2018-03-14T09:04:11.008Z,15.30
2018-03-14T09:06:39.388Z,14.30
2018-03-14T09:09:07.745Z,12.07
2018-03-14T09:11:36.114Z,13.50
2018-03-14T09:14:04.479Z,12.27
2018-03-14T09:16:32.850Z,13.03
2018-03-14T09:19:01.200Z,14.83
2018-03-14T09:21:29.579Z,12.70
2018-03-14T09:23:57.940Z,12.40
2018-03-14T09:26:26.308Z,12.67
2018-03-14T09:28:54.684Z,13.70
2018-03-14T09:31:23.052Z,13.40
2018-03-14T09:33:51.412Z,13.90
2018-03-14T09:36:19.823Z,12.37
2018-03-14T09:38:48.225Z,12.13
2018-03-14T09:41:16.596Z,13.10
2018-03-14T09:43:44.955Z,11.50
2018-03-14T09:46:13.339Z,11.07
2018-03-14T09:48:41.702Z,10.40
2018-03-14T09:51:10.084Z,10.60
2018-03-14T09:53:38.436Z,12.10
2018-03-14T09:56:06.826Z,10.70
2018-03-14T09:58:35.191Z,9.53
2018-03-14T10:01:03.567Z,10.30
2018-03-14T10:03:31.936Z,10.63
2018-03-14T10:06:00.324Z,10.60
2018-03-14T10:08:28.736Z,10.43
2018-03-14T10:10:57.120Z,11.10
2018-03-14T10:13:25.478Z,10.10
2018-03-14T10:15:53.871Z,10.47
2018-03-14T10:18:22.253Z,10.20
2018-03-14T10:20:50.616Z,9.70
2018-03-14T10:23:18.981Z,11.03
2018-03-14T10:25:47.448Z,9.83
2018-03-14T10:28:15.744Z,9.80
2018-03-14T10:30:44.111Z,11.43
2018-03-14T10:33:12.466Z,9.63
2018-03-14T10:35:41.232Z,10.50
2018-03-14T10:38:09.605Z,9.97
2018-03-14T10:40:37.979Z,11.53
2018-03-14T10:43:06.346Z,10.47
2018-03-14T10:45:34.707Z,10.83
2018-03-14T10:48:03.728Z,10.47
2018-03-14T10:50:32.125Z,10.70
2018-03-14T10:53:00.491Z,10.40
2018-03-14T10:55:28.872Z,10.23
2018-03-14T10:57:57.241Z,10.10
2018-03-14T11:00:27.264Z,11.10
2018-03-14T11:03:01.238Z,11.00
2018-03-14T11:05:29.612Z,12.27
2018-03-14T11:07:57.991Z,11.30
2018-03-14T11:10:26.442Z,11.30
2018-03-14T11:12:55.195Z,12.17
2018-03-14T11:15:23.547Z,12.40
2018-03-14T11:17:51.922Z,10.47
2018-03-14T11:20:20.324Z,11.77
2018-03-14T11:22:48.672Z,11.27
2018-03-14T11:25:17.045Z,11.57
2018-03-14T11:27:45.432Z,10.87
2018-03-14T11:30:14.006Z,9.27
2018-03-14T11:32:42.186Z,10.10
2018-03-14T11:35:10.608Z,10.03
2018-03-14T11:37:38.940Z,10.57
2018-03-14T11:40:07.328Z,9.70
2018-03-14T11:42:35.695Z,9.33
2018-03-14T11:45:04.054Z,9.57
2018-03-14T11:47:32.434Z,9.13
2018-03-14T11:50:01.202Z,11.20
2018-03-14T11:52:29.551Z,12.40
2018-03-14T11:54:57.924Z,12.00
2018-03-14T11:57:26.298Z,11.30
2018-03-14T11:59:54.656Z,11.50
2018-03-14T12:02:23.040Z,14.07
2018-03-14T12:04:51.416Z,10.23
2018-03-14T12:07:19.768Z,12.07
2018-03-14T12:09:48.315Z,11.17
2018-03-14T12:12:16.706Z,11.20
2018-03-14T12:14:45.065Z,11.17
2018-03-14T12:17:13.444Z,12.53
2018-03-14T12:19:41.807Z,10.63
2018-03-14T12:22:15.843Z,10.93
2018-03-14T12:24:44.194Z,11.80
2018-03-14T12:27:12.721Z,10.97
2018-03-14T12:29:41.095Z,11.33
2018-03-14T12:32:09.450Z,11.27
2018-03-14T12:34:37.815Z,11.53
2018-03-14T12:37:06.190Z,11.30
2018-03-14T12:39:34.565Z,11.00
2018-03-14T12:42:02.942Z,10.47
2018-03-14T12:44:31.329Z,10.90
2018-03-14T12:46:59.728Z,10.10
2018-03-14T12:49:28.093Z,10.60
2018-03-14T12:51:56.463Z,10.83
2018-03-14T12:54:24.823Z,10.40
2018-03-14T12:56:53.667Z,10.50
2018-03-14T12:59:22.031Z,9.43
2018-03-14T13:01:50.413Z,9.73
2018-03-14T13:04:18.780Z,9.13
2018-03-14T13:06:47.139Z,8.70
2018-03-14T13:09:15.560Z,9.17
2018-03-14T13:11:43.968Z,9.40
2018-03-14T13:14:12.323Z,10.50
2018-03-14T13:16:40.694Z,9.53
2018-03-14T13:19:09.062Z,12.20
2018-03-14T13:21:37.442Z,10.53
2018-03-14T13:24:05.811Z,9.90
2018-03-14T13:26:34.228Z,9.90
2018-03-14T13:29:02.583Z,9.40
2018-03-14T13:31:30.972Z,9.50
2018-03-14T13:33:59.450Z,9.40
2018-03-14T13:36:27.815Z,9.23
2018-03-14T13:38:56.177Z,9.27
2018-03-14T13:41:24.602Z,8.87
2018-03-14T13:43:52.955Z,9.77
2018-03-14T13:46:21.319Z,9.40
2018-03-14T13:48:49.689Z,9.63
2018-03-14T13:51:18.048Z,9.00
2018-03-14T13:53:46.416Z,10.30
2018-03-14T13:56:15.172Z,10.17
2018-03-14T13:58:43.564Z,9.17
2018-03-14T14:01:12.041Z,9.77
2018-03-14T14:03:40.408Z,9.97
2018-03-14T14:06:08.767Z,9.93
2018-03-14T14:08:37.179Z,10.83
2018-03-14T14:11:05.564Z,10.07
2018-03-14T14:13:33.934Z,9.90
2018-03-14T14:16:02.701Z,9.70
2018-03-14T14:18:31.084Z,8.73
2018-03-14T14:20:59.444Z,9.80
2018-03-14T14:23:27.853Z,10.23
2018-03-14T14:25:56.223Z,8.60
2018-03-14T14:28:24.612Z,9.00
2018-03-14T14:30:52.970Z,10.30
2018-03-14T14:33:21.351Z,9.07
2018-03-14T14:35:49.727Z,10.40
2018-03-14T14:38:18.086Z,9.23
2018-03-14T14:40:46.439Z,15.33
2018-03-14T14:43:15.301Z,11.77
2018-03-14T14:45:43.679Z,8.90
2018-03-14T14:48:12.080Z,8.23
2018-03-14T14:50:40.828Z,8.17
2018-03-14T14:53:09.201Z,8.70
2018-03-14T14:55:37.556Z,8.20
2018-03-14T14:58:05.922Z,8.20
2018-03-14T15:00:34.284Z,8.10
2018-03-14T15:03:03.036Z,7.97
2018-03-14T15:05:31.402Z,6.67
2018-03-14T15:07:59.768Z,6.97
2018-03-14T15:10:28.127Z,6.87
2018-03-14T15:12:56.502Z,7.03
2018-03-14T15:15:24.872Z,6.13
2018-03-14T15:17:53.660Z,7.27
2018-03-14T15:20:22.403Z,6.73
2018-03-14T15:22:50.772Z,5.93
2018-03-14T15:25:19.177Z,7.00
2018-03-14T15:27:47.624Z,6.83
2018-03-14T15:30:15.958Z,6.83
2018-03-14T15:32:44.720Z,6.87
2018-03-14T15:35:13.072Z,6.23
2018-03-14T15:37:41.438Z,7.33
2018-03-14T15:40:09.787Z,6.23
2018-03-14T15:42:38.560Z,6.00
2018-03-14T15:45:07.426Z,6.00
2018-03-14T15:47:35.799Z,5.57
2018-03-14T15:50:04.152Z,6.60
2018-03-14T15:52:32.511Z,6.43
2018-03-14T15:55:00.863Z,7.13
2018-03-14T15:57:29.234Z,7.00
2018-03-14T15:59:57.707Z,7.10
2018-03-14T16:02:26.165Z,6.93
2018-03-14T16:04:54.543Z,7.10
2018-03-14T16:07:22.903Z,6.50
2018-03-14T16:09:51.303Z,7.10
2018-03-14T16:12:19.687Z,8.97
2018-03-14T16:14:48.043Z,7.90
2018-03-14T16:17:16.568Z,8.10
2018-03-14T16:19:45.342Z,8.83
2018-03-14T16:22:13.737Z,8.10
2018-03-14T16:24:42.099Z,8.40
2018-03-14T16:27:10.484Z,8.60
2018-03-14T16:29:38.846Z,9.70
2018-03-14T16:32:07.207Z,8.93
2018-03-14T16:34:35.559Z,9.47
2018-03-14T16:37:03.921Z,9.90
2018-03-14T16:39:32.693Z,9.80
2018-03-14T16:42:01.047Z,11.10
2018-03-14T16:44:29.730Z,21.63
2018-03-14T16:46:58.530Z,24.03
2018-03-14T16:49:26.916Z,13.40
2018-03-14T16:51:55.277Z,16.67
2018-03-14T16:54:23.633Z,23.53
2018-03-14T16:56:51.993Z,13.80
2018-03-14T16:59:20.346Z,25.83
2018-03-14T17:01:48.705Z,9.30
2018-03-14T17:04:17.066Z,9.30
2018-03-14T17:06:45.415Z,8.23
2018-03-14T17:09:13.778Z,8.47
2018-03-14T17:11:42.538Z,9.30
2018-03-14T17:14:10.891Z,8.80
2018-03-14T17:16:39.268Z,9.07
2018-03-14T17:19:07.632Z,9.53
2018-03-14T17:21:35.996Z,9.00
2018-03-14T17:24:04.342Z,9.90
2018-03-14T17:26:33.136Z,10.07
2018-03-14T17:29:01.890Z,9.80
2018-03-14T17:31:30.279Z,10.00
2018-03-14T17:33:58.632Z,9.40
2018-03-14T17:36:27.049Z,9.13
2018-03-14T17:38:55.364Z,9.13
2018-03-14T17:41:23.712Z,7.87
2018-03-14T17:43:52.457Z,9.77
2018-03-14T17:46:20.823Z,8.90
2018-03-14T17:48:49.171Z,9.70
2018-03-14T17:51:17.925Z,8.87
2018-03-14T17:53:46.293Z,9.03
2018-03-14T17:56:14.677Z,9.50
2018-03-14T17:58:43.046Z,11.73
2018-03-14T18:01:11.400Z,9.17
2018-03-14T18:03:39.763Z,10.00
2018-03-14T18:06:08.156Z,9.67
2018-03-14T18:08:36.519Z,11.40
2018-03-14T18:11:04.893Z,10.93
2018-03-14T18:13:33.235Z,9.70
2018-03-14T18:16:01.631Z,10.90
2018-03-14T18:18:30.405Z,11.40
2018-03-14T18:20:58.866Z,10.67
2018-03-14T18:23:27.248Z,10.93
2018-03-14T18:25:55.616Z,11.77
2018-03-14T18:28:23.963Z,12.97
2018-03-14T18:30:52.317Z,14.90
2018-03-14T18:33:21.187Z,14.37
2018-03-14T18:35:49.545Z,14.13
2018-03-14T18:38:17.899Z,14.87
2018-03-14T18:40:46.303Z,14.10
2018-03-14T18:43:14.684Z,14.10
2018-03-14T18:45:43.054Z,14.63
2018-03-14T18:48:11.427Z,14.67
2018-03-14T18:50:39.796Z,13.60
2018-03-14T18:53:08.152Z,13.47
2018-03-14T18:55:36.605Z,13.50
2018-03-14T18:58:04.967Z,12.90
2018-03-14T19:00:33.353Z,14.20
2018-03-14T19:03:03.363Z,11.27
2018-03-14T19:05:31.758Z,13.40
2018-03-14T19:08:00.564Z,13.50
2018-03-14T19:10:28.904Z,13.13
2018-03-14T19:12:57.260Z,11.83
2018-03-14T19:15:25.634Z,11.73
2018-03-14T19:17:53.974Z,13.20
2018-03-14T19:20:22.744Z,12.50
2018-03-14T19:22:51.095Z,11.73
2018-03-14T19:25:19.465Z,11.90
2018-03-14T19:27:47.857Z,12.70
2018-03-14T19:30:16.339Z,12.00
2018-03-14T19:32:44.705Z,10.60
2018-03-14T19:35:13.117Z,11.93
2018-03-14T19:37:41.489Z,12.37
2018-03-14T19:40:09.864Z,12.33
2018-03-14T19:42:38.212Z,11.87
2018-03-14T19:45:06.578Z,12.10
2018-03-14T19:47:34.948Z,11.20
2018-03-14T19:50:03.329Z,12.63
2018-03-14T19:52:32.650Z,11.60
2018-03-14T19:55:01.012Z,10.13
2018-03-14T19:57:29.354Z,11.57
2018-03-14T19:59:57.724Z,10.60
2018-03-14T20:02:26.134Z,13.47
2018-03-14T20:04:54.645Z,11.43
2018-03-14T20:07:22.999Z,11.40
2018-03-14T20:09:51.361Z,12.17
2018-03-14T20:12:20.140Z,11.13
2018-03-14T20:14:48.575Z,9.80
2018-03-14T20:17:16.945Z,9.40
2018-03-14T20:19:45.315Z,9.57
2018-03-14T20:22:14.013Z,9.77
2018-03-14T20:24:42.475Z,10.53
2018-03-14T20:27:10.900Z,8.90
2018-03-14T20:29:39.260Z,8.33
2018-03-14T20:32:07.690Z,10.03
2018-03-14T20:34:36.035Z,10.03
2018-03-14T20:37:04.427Z,10.20
2018-03-14T20:39:32.787Z,10.90
2018-03-14T20:42:06.092Z,11.60
2018-03-14T20:44:34.448Z,13.57
2018-03-14T20:47:02.835Z,13.70
2018-03-14T20:49:31.196Z,15.17
2018-03-14T20:51:59.591Z,13.53
2018-03-14T20:54:28.058Z,15.90
2018-03-14T20:56:56.419Z,14.70
2018-03-14T20:59:24.839Z,16.37
2018-03-14T21:01:53.231Z,17.00
2018-03-14T21:04:21.615Z,15.90
2018-03-14T21:06:49.970Z,17.10
2018-03-14T21:09:18.327Z,16.23
2018-03-14T21:11:46.689Z,15.20
2018-03-14T21:14:15.132Z,16.57
2018-03-14T21:16:43.496Z,17.40
2018-03-14T21:19:11.871Z,18.63
2018-03-14T21:21:40.233Z,19.10
2018-03-14T21:24:08.647Z,18.30
2018-03-14T21:26:37.010Z,17.73
2018-03-14T21:29:05.369Z,17.33
2018-03-14T21:31:33.725Z,15.43
2018-03-14T21:34:02.096Z,16.57
2018-03-14T21:36:30.482Z,16.07
2018-03-14T21:38:58.904Z,15.37
2018-03-14T21:41:27.244Z,15.73
2018-03-14T21:43:55.619Z,15.00
2018-03-14T21:46:24.029Z,15.60
2018-03-14T21:48:52.398Z,16.20
2018-03-14T21:51:20.803Z,15.80
2018-03-14T21:53:49.154Z,16.27
2018-03-14T21:56:17.517Z,14.90
2018-03-14T21:58:45.876Z,15.03
2018-03-14T22:01:14.635Z,14.87
2018-03-14T22:03:42.980Z,16.27
2018-03-14T22:06:11.382Z,15.00
2018-03-14T22:08:39.786Z,15.37
2018-03-14T22:11:09.041Z,15.43
2018-03-14T22:13:37.400Z,13.17
2018-03-14T22:16:05.772Z,13.57
2018-03-14T22:18:34.143Z,13.50
2018-03-14T22:21:02.513Z,15.27
2018-03-14T22:23:31.247Z,14.20
2018-03-14T22:25:59.643Z,14.03
2018-03-14T22:28:28.034Z,14.50
2018-03-14T22:30:56.402Z,16.60
2018-03-14T22:33:25.191Z,14.30
2018-03-14T22:35:53.640Z,13.30
2018-03-14T22:38:21.986Z,14.50
2018-03-14T22:40:50.743Z,13.17
2018-03-14T22:43:19.088Z,14.10
2018-03-14T22:45:47.452Z,13.73
2018-03-14T22:48:15.828Z,14.00
2018-03-14T22:50:44.186Z,13.37
2018-03-14T22:53:12.942Z,14.20
2018-03-14T22:55:41.401Z,14.47
2018-03-14T22:58:09.827Z,14.07
2018-03-14T23:00:38.147Z,14.40
2018-03-14T23:03:06.822Z,12.47
2018-03-14T23:05:35.266Z,13.03
2018-03-14T23:08:03.592Z,12.90
2018-03-14T23:10:31.972Z,13.27
2018-03-14T23:13:00.352Z,13.73
2018-03-14T23:15:29.717Z,13.77
2018-03-14T23:17:58.548Z,13.37
2018-03-14T23:20:27.015Z,12.70
2018-03-14T23:22:55.491Z,13.73
2018-03-14T23:25:23.888Z,13.93
2018-03-14T23:27:52.240Z,12.83
2018-03-14T23:30:20.606Z,14.30
2018-03-14T23:32:49.351Z,13.50
2018-03-14T23:35:17.711Z,13.73
2018-03-14T23:37:46.093Z,13.63
2018-03-14T23:40:14.464Z,13.83
2018-03-14T23:42:42.924Z,14.97
2018-03-14T23:45:11.301Z,15.07
2018-03-14T23:47:39.643Z,15.07
2018-03-14T23:50:09.098Z,15.00
2018-03-14T23:52:37.480Z,13.53
2018-03-14T23:55:05.852Z,14.33
2018-03-14T23:57:34.201Z,14.07
